Time;durP1;ratioP1;P1;durP2;ratioP2;P2;SDS_P1;SDS_P2;PMS_P1;PMS_P2;Temp;Humidity;BMP_temperature;BMP_pressure;BME280_temperature;BME280_humidity;BME280_pressure;Samples;Min_cycle;Max_cycle;Signal;HPM_P1;HPM_P2
2021/03/04 00:02:15;;;;;;;82.28;29.33;;;3.30;91.10;;;;;;6075306;23;20016;-86
2021/03/04 00:04:41;;;;;;;83.20;28.45;;;3.30;91.20;;;;;;6123136;23;20078;-87
2021/03/04 00:07:07;;;;;;;68.38;26.73;;;3.40;91.20;;;;;;6099622;23;20013;-87
2021/03/04 00:09:33;;;;;;;84.63;27.70;;;3.30;91.20;;;;;;6105777;23;20096;-85
2021/03/04 00:11:58;;;;;;;79.47;26.15;;;3.30;91.20;;;;;;6077776;23;20020;-87
2021/03/04 00:14:24;;;;;;;72.28;25.77;;;3.40;91.20;;;;;;6100898;23;20017;-87
2021/03/04 00:16:50;;;;;;;78.13;27.70;;;3.40;91.40;;;;;;6076588;23;20024;-87
2021/03/04 00:19:16;;;;;;;71.72;25.35;;;3.30;91.30;;;;;;6101020;23;20476;-86
2021/03/04 00:21:42;;;;;;;71.28;25.73;;;3.30;91.20;;;;;;6076030;23;20039;-86
2021/03/04 00:24:08;;;;;;;72.15;27.00;;;3.30;91.30;;;;;;6075704;23;20446;-85
2021/03/04 00:26:34;;;;;;;55.20;21.42;;;3.30;91.30;;;;;;6075506;23;20021;-87
2021/03/04 00:29:01;;;;;;;50.45;21.85;;;3.30;91.20;;;;;;6076013;23;20017;-85
2021/03/04 00:31:26;;;;;;;58.60;22.98;;;3.30;91.30;;;;;;6076597;23;20069;-86
2021/03/04 00:33:52;;;;;;;59.50;22.50;;;3.30;91.20;;;;;;6075012;23;20017;-87
2021/03/04 00:36:18;;;;;;;56.55;21.70;;;3.40;91.30;;;;;;6074888;23;20590;-86
2021/03/04 00:38:44;;;;;;;58.60;21.92;;;3.30;91.20;;;;;;6076801;23;20480;-88
2021/03/04 00:41:10;;;;;;;59.30;21.90;;;3.30;91.30;;;;;;6076235;23;20028;-88
2021/03/04 00:43:36;;;;;;;54.30;20.83;;;3.30;91.40;;;;;;6077773;23;20076;-88
2021/03/04 00:46:02;;;;;;;51.97;19.90;;;3.30;91.20;;;;;;6100618;23;20013;-86
2021/03/04 00:48:28;;;;;;;62.03;21.48;;;3.30;91.20;;;;;;6101124;23;20461;-87
2021/03/04 00:50:54;;;;;;;56.53;20.92;;;3.30;91.20;;;;;;6101276;23;20089;-87
2021/03/04 00:53:20;;;;;;;48.83;20.08;;;3.30;91.20;;;;;;6077093;23;20017;-87
2021/03/04 00:55:46;;;;;;;63.17;22.35;;;3.30;91.30;;;;;;6100231;23;20461;-86
2021/03/04 00:58:12;;;;;;;52.63;20.63;;;3.30;91.20;;;;;;6076900;23;20089;-88
2021/03/04 01:00:39;;;;;;;54.30;20.63;;;3.30;91.30;;;;;;6101054;23;20021;-88
2021/03/04 01:03:05;;;;;;;61.45;20.10;;;3.30;91.30;;;;;;6101754;23;20013;-88
2021/03/04 01:05:32;;;;;;;49.60;18.90;;;3.30;91.40;;;;;;6077513;23;20009;-86
2021/03/04 01:07:58;;;;;;;49.72;18.75;;;3.30;91.30;;;;;;6076303;23;20103;-88
2021/03/04 01:10:42;;;;;;;46.58;18.67;;;3.30;91.30;;;;;;6101006;23;20013;-88
2021/03/04 01:13:09;;;;;;;49.25;18.50;;;3.20;91.30;;;;;;6076545;23;20065;-88
2021/03/04 01:15:35;;;;;;;50.65;18.90;;;3.20;91.20;;;;;;6101300;23;20013;-87
2021/03/04 01:18:02;;;;;;;56.13;20.08;;;3.10;91.30;;;;;;6077273;23;20044;-86
2021/03/04 01:20:28;;;;;;;45.67;17.60;;;3.10;91.20;;;;;;6080026;23;20017;-87
2021/03/04 01:22:54;;;;;;;49.28;18.27;;;3.10;91.30;;;;;;6100317;23;20015;-87
2021/03/04 01:25:19;;;;;;;47.35;17.85;;;3.10;91.30;;;;;;6076748;23;20013;-88
2021/03/04 01:27:47;;;;;;;42.08;17.27;;;3.10;91.20;;;;;;6076097;23;20040;-88
2021/03/04 01:30:13;;;;;;;52.28;17.98;;;3.10;91.30;;;;;;6077183;23;20518;-87
2021/03/04 01:32:39;;;;;;;45.40;17.73;;;3.10;91.40;;;;;;6100936;23;20013;-89
2021/03/04 01:35:06;;;;;;;48.88;18.50;;;3.10;91.30;;;;;;6076439;23;20017;-88
2021/03/04 01:37:33;;;;;;;59.35;20.55;;;3.10;91.40;;;;;;6076970;23;20065;-85
2021/03/04 01:39:59;;;;;;;53.95;19.50;;;3.10;91.30;;;;;;6100546;23;20025;-86
2021/03/04 01:42:25;;;;;;;51.15;18.00;;;3.10;91.30;;;;;;6075789;23;20476;-87
2021/03/04 01:44:53;;;;;;;45.42;15.93;;;3.10;91.30;;;;;;6101776;23;20473;-87
2021/03/04 01:47:19;;;;;;;45.08;17.30;;;3.10;91.40;;;;;;6101235;23;20013;-88
2021/03/04 01:49:45;;;;;;;45.08;17.23;;;3.10;91.30;;;;;;6076513;23;20013;-85
2021/03/04 01:52:11;;;;;;;43.30;16.38;;;3.00;91.30;;;;;;6099997;23;20027;-87
2021/03/04 01:54:36;;;;;;;45.28;17.20;;;3.10;91.40;;;;;;6104512;23;20017;-87
2021/03/04 01:57:03;;;;;;;44.28;16.77;;;3.00;91.30;;;;;;6124373;23;20048;-86
2021/03/04 01:59:29;;;;;;;39.63;15.93;;;3.10;91.40;;;;;;6100572;23;20058;-88
2021/03/04 02:01:55;;;;;;;47.42;16.50;;;3.10;91.40;;;;;;6100057;23;20013;-87
2021/03/04 02:04:23;;;;;;;51.17;17.23;;;3.10;91.30;;;;;;6077993;23;20009;-86
2021/03/04 02:07:02;;;;;;;43.65;17.50;;;3.10;91.40;;;;;;6100047;23;20468;-86
2021/03/04 02:09:27;;;;;;;39.72;15.60;;;3.00;91.30;;;;;;6148203;23;20033;-86
2021/03/04 02:11:59;;;;;;;54.33;16.70;;;3.10;91.40;;;;;;6099873;23;20469;-86
2021/03/04 02:14:28;;;;;;;43.92;16.70;;;3.10;91.40;;;;;;6101159;23;20094;-86
2021/03/04 02:17:04;;;;;;;48.78;16.58;;;3.10;91.40;;;;;;6099985;23;20009;-86
2021/03/04 02:19:50;;;;;;;47.90;16.70;;;3.10;91.40;;;;;;6101208;23;20104;-86
2021/03/04 02:22:34;;;;;;;48.83;17.10;;;3.10;91.40;;;;;;6099330;23;20028;-86
2021/03/04 02:25:13;;;;;;;49.63;17.50;;;3.10;91.40;;;;;;6124953;23;20498;-87
2021/03/04 02:27:39;;;;;;;60.63;17.67;;;3.10;91.50;;;;;;6127038;23;20009;-88
2021/03/04 02:30:13;;;;;;;57.00;17.52;;;3.10;91.50;;;;;;6081564;23;20040;-85
2021/03/04 02:32:43;;;;;;;54.90;17.15;;;3.10;91.50;;;;;;6076896;23;20017;-87
2021/03/04 02:35:12;;;;;;;44.70;16.20;;;3.10;91.50;;;;;;6100175;23;20024;-86
2021/03/04 02:37:41;;;;;;;53.38;18.02;;;3.10;91.60;;;;;;6100390;23;20036;-86
2021/03/04 02:40:11;;;;;;;53.78;17.00;;;3.20;91.50;;;;;;6101040;23;20376;-86
2021/03/04 02:42:39;;;;;;;59.10;18.25;;;3.20;91.60;;;;;;6100171;23;20017;-86
2021/03/04 02:45:05;;;;;;;54.05;17.77;;;3.20;91.60;;;;;;6076521;23;20013;-85
2021/03/04 02:47:35;;;;;;;66.95;19.25;;;3.20;91.60;;;;;;6099916;23;20353;-86
2021/03/04 02:50:03;;;;;;;50.10;18.20;;;3.20;91.60;;;;;;6079094;23;20017;-87
2021/03/04 02:52:31;;;;;;;54.50;17.65;;;3.20;91.60;;;;;;6076374;23;20085;-87
2021/03/04 02:54:58;;;;;;;51.20;17.40;;;3.20;91.60;;;;;;6101074;23;20013;-87
2021/03/04 02:57:24;;;;;;;69.90;20.45;;;3.20;91.60;;;;;;6099681;23;20017;-87
2021/03/04 02:59:50;;;;;;;58.78;18.80;;;3.20;91.60;;;;;;6076359;23;20023;-86
2021/03/04 03:02:16;;;;;;;46.85;18.38;;;3.20;91.60;;;;;;6075501;23;20538;-87
2021/03/04 03:04:42;;;;;;;63.10;19.73;;;3.30;91.70;;;;;;6103784;23;20017;-86
2021/03/04 03:07:09;;;;;;;57.80;18.92;;;3.20;91.70;;;;;;6099669;23;20549;-86
2021/03/04 03:09:36;;;;;;;52.90;19.50;;;3.30;91.70;;;;;;6100495;23;20385;-87
2021/03/04 03:12:02;;;;;;;51.95;19.50;;;3.30;91.70;;;;;;6075279;23;20488;-87
2021/03/04 03:14:28;;;;;;;62.88;21.40;;;3.30;91.70;;;;;;6100598;23;20442;-87
2021/03/04 03:16:54;;;;;;;61.33;21.13;;;3.30;91.70;;;;;;6075880;23;20020;-87
2021/03/04 03:19:20;;;;;;;65.18;20.92;;;3.30;91.70;;;;;;6075173;23;20021;-85
2021/03/04 03:21:46;;;;;;;65.32;21.08;;;3.30;91.70;;;;;;6075480;23;20023;-87
2021/03/04 03:24:12;;;;;;;64.13;21.80;;;3.30;91.70;;;;;;6075789;23;20024;-88
2021/03/04 03:26:38;;;;;;;77.80;22.10;;;3.30;91.80;;;;;;6075063;23;20017;-87
2021/03/04 03:29:04;;;;;;;59.20;18.75;;;3.30;91.90;;;;;;6076613;23;20013;-87
2021/03/04 03:31:30;;;;;;;70.90;22.00;;;3.30;91.80;;;;;;6099691;23;20360;-86
2021/03/04 03:33:56;;;;;;;63.05;20.50;;;3.30;91.80;;;;;;6076331;23;20078;-86
2021/03/04 03:36:23;;;;;;;60.35;20.70;;;3.30;91.80;;;;;;6076026;23;20017;-86
2021/03/04 03:38:49;;;;;;;71.35;22.95;;;3.30;91.80;;;;;;6079226;23;20067;-86
2021/03/04 03:41:17;;;;;;;66.90;22.45;;;3.40;91.80;;;;;;6075954;23;20107;-86
2021/03/04 03:43:42;;;;;;;60.17;21.38;;;3.40;91.80;;;;;;6099797;23;20009;-87
2021/03/04 03:46:08;;;;;;;59.40;21.00;;;3.40;91.80;;;;;;6100201;23;20353;-86
2021/03/04 03:48:37;;;;;;;65.43;21.92;;;3.40;91.80;;;;;;6076625;23;20349;-87
2021/03/04 03:51:03;;;;;;;55.92;21.13;;;3.40;91.80;;;;;;6099695;23;20024;-86
2021/03/04 03:53:29;;;;;;;71.65;24.00;;;3.40;91.80;;;;;;6075892;23;20013;-86
2021/03/04 03:55:55;;;;;;;65.93;22.30;;;3.40;91.80;;;;;;6100126;23;20020;-89
2021/03/04 03:58:22;;;;;;;58.50;22.48;;;3.40;91.90;;;;;;6075816;23;20028;-84
2021/03/04 04:00:48;;;;;;;61.17;23.75;;;3.40;91.80;;;;;;6075690;23;20021;-86
2021/03/04 04:03:14;;;;;;;58.20;21.88;;;3.40;91.80;;;;;;6099273;23;20025;-87
2021/03/04 04:05:41;;;;;;;65.55;23.42;;;3.40;91.80;;;;;;6076282;23;20082;-85
2021/03/04 04:08:07;;;;;;;61.42;22.80;;;3.40;91.80;;;;;;6075065;23;20040;-87
2021/03/04 04:10:34;;;;;;;62.33;22.92;;;3.40;91.90;;;;;;6075813;23;20028;-87
2021/03/04 04:13:00;;;;;;;67.78;23.30;;;3.40;91.80;;;;;;6078001;23;20025;-86
2021/03/04 04:15:26;;;;;;;64.05;23.23;;;3.40;91.80;;;;;;6078931;23;20101;-86
2021/03/04 04:17:58;;;;;;;67.18;23.25;;;3.40;91.80;;;;;;6074804;23;20020;-87
2021/03/04 04:20:24;;;;;;;74.00;24.73;;;3.50;91.80;;;;;;6076265;23;20017;-87
2021/03/04 04:22:51;;;;;;;58.38;22.75;;;3.40;91.80;;;;;;6099089;23;20005;-87
2021/03/04 04:25:20;;;;;;;57.60;20.13;;;3.50;91.80;;;;;;6100099;23;20078;-85
2021/03/04 04:27:46;;;;;;;58.13;21.00;;;3.50;91.80;;;;;;6100216;23;20013;-86
2021/03/04 04:30:12;;;;;;;45.45;19.70;;;3.50;91.80;;;;;;6099791;23;20028;-87
2021/03/04 04:32:38;;;;;;;49.60;20.05;;;3.40;91.90;;;;;;6099162;23;20411;-87
2021/03/04 04:35:04;;;;;;;49.30;18.65;;;3.40;91.80;;;;;;6099939;23;20014;-87
2021/03/04 04:37:30;;;;;;;42.80;18.27;;;3.40;91.80;;;;;;6100329;23;20020;-86
2021/03/04 04:39:58;;;;;;;38.78;17.38;;;3.40;91.80;;;;;;6100600;23;20085;-86
2021/03/04 04:42:24;;;;;;;50.28;18.10;;;3.40;91.80;;;;;;6075328;23;20037;-87
2021/03/04 04:44:50;;;;;;;46.30;18.25;;;3.40;91.80;;;;;;6075091;23;20526;-87
2021/03/04 04:47:16;;;;;;;43.78;16.90;;;3.40;91.80;;;;;;6075367;23;20040;-87
2021/03/04 04:49:42;;;;;;;49.90;18.88;;;3.30;91.80;;;;;;6128883;23;20017;-87
2021/03/04 04:52:08;;;;;;;36.30;15.48;;;3.40;91.80;;;;;;6074811;23;20394;-88
2021/03/04 04:54:34;;;;;;;40.50;16.75;;;3.30;91.80;;;;;;6075593;23;20454;-88
2021/03/04 04:57:00;;;;;;;40.65;16.50;;;3.40;91.80;;;;;;6075358;23;20379;-86
2021/03/04 04:59:26;;;;;;;42.03;16.83;;;3.30;91.80;;;;;;6074648;23;20025;-87
2021/03/04 05:01:51;;;;;;;39.85;16.70;;;3.30;91.80;;;;;;6074992;23;20021;-86
2021/03/04 05:04:18;;;;;;;37.08;15.32;;;3.30;91.80;;;;;;6099010;23;20013;-87
2021/03/04 05:06:44;;;;;;;37.55;15.63;;;3.30;91.80;;;;;;6075493;23;20020;-87
2021/03/04 05:09:09;;;;;;;42.20;16.58;;;3.30;91.80;;;;;;6099143;23;20024;-87
2021/03/04 05:11:36;;;;;;;36.88;16.30;;;3.30;91.70;;;;;;6076574;23;20051;-87
2021/03/04 05:14:02;;;;;;;40.28;16.33;;;3.30;91.80;;;;;;6078460;23;20168;-86
2021/03/04 05:16:28;;;;;;;38.78;16.10;;;3.30;91.80;;;;;;6100823;23;20017;-87
2021/03/04 05:18:54;;;;;;;32.03;16.23;;;3.30;91.80;;;;;;6075633;23;20017;-87
2021/03/04 05:21:20;;;;;;;36.67;15.13;;;3.30;91.90;;;;;;6051639;23;20132;-87
2021/03/04 05:23:46;;;;;;;40.95;16.42;;;3.30;91.80;;;;;;6049302;23;20017;-86
2021/03/04 05:26:12;;;;;;;37.45;14.82;;;3.30;91.80;;;;;;6070819;23;20389;-86
2021/03/04 05:28:38;;;;;;;29.50;13.77;;;3.30;91.90;;;;;;6047287;23;20520;-87
2021/03/04 05:31:03;;;;;;;33.95;14.77;;;3.20;91.80;;;;;;6072802;23;20006;-85
2021/03/04 05:33:29;;;;;;;28.63;12.35;;;3.30;91.80;;;;;;6073430;23;20071;-87
2021/03/04 05:35:55;;;;;;;28.05;13.05;;;3.20;91.80;;;;;;6071974;23;20337;-85
2021/03/04 05:38:21;;;;;;;27.63;12.57;;;3.20;91.80;;;;;;6071600;23;20238;-87
2021/03/04 05:40:47;;;;;;;34.55;13.63;;;3.10;91.80;;;;;;6071661;23;20014;-87
2021/03/04 05:43:13;;;;;;;31.48;13.45;;;3.10;91.80;;;;;;6071457;23;20326;-86
2021/03/04 05:45:40;;;;;;;35.95;13.80;;;3.10;91.80;;;;;;6095291;23;20494;-86
2021/03/04 05:48:07;;;;;;;27.75;12.57;;;3.10;91.80;;;;;;6047808;23;20056;-87
2021/03/04 05:50:33;;;;;;;36.45;13.68;;;3.10;91.80;;;;;;6047916;23;20059;-86
2021/03/04 05:53:03;;;;;;;29.13;13.15;;;3.10;91.90;;;;;;6072824;23;20010;-85
2021/03/04 05:55:29;;;;;;;35.55;14.05;;;3.10;91.90;;;;;;6049026;23;20020;-86
2021/03/04 05:57:56;;;;;;;30.30;14.43;;;3.10;91.90;;;;;;6051445;23;20365;-86
2021/03/04 06:00:22;;;;;;;35.42;14.02;;;3.20;91.90;;;;;;6049363;23;20014;-86
2021/03/04 06:02:47;;;;;;;27.85;12.82;;;3.20;91.90;;;;;;6071840;23;20528;-86
2021/03/04 06:05:14;;;;;;;36.05;14.05;;;3.20;91.90;;;;;;6048400;23;20070;-87
2021/03/04 06:07:44;;;;;;;26.10;11.38;;;3.20;92.00;;;;;;6047664;23;20159;-89
2021/03/04 06:10:11;;;;;;;25.00;11.75;;;3.20;91.90;;;;;;6048616;23;20013;-89
2021/03/04 06:12:39;;;;;;;21.67;10.60;;;3.10;91.90;;;;;;6072856;23;20545;-88
2021/03/04 06:15:09;;;;;;;27.17;12.63;;;3.10;91.80;;;;;;6047303;23;20020;-88
2021/03/04 06:17:35;;;;;;;24.63;11.85;;;3.10;91.80;;;;;;6070337;23;20017;-87
2021/03/04 06:20:03;;;;;;;21.85;11.57;;;3.10;91.80;;;;;;6047323;23;20336;-86
2021/03/04 06:22:33;;;;;;;27.48;12.90;;;3.10;91.80;;;;;;6046974;23;20371;-89
2021/03/04 06:25:10;;;;;;;24.48;11.90;;;3.10;91.80;;;;;;6046934;23;20014;-88
2021/03/04 06:27:42;;;;;;;25.63;12.20;;;3.10;91.80;;;;;;6075670;23;20045;-88
2021/03/04 06:30:10;;;;;;;25.15;12.50;;;3.10;91.80;;;;;;6049778;23;20018;-88
2021/03/04 06:32:36;;;;;;;20.58;11.80;;;3.10;91.80;;;;;;6071777;23;20080;-90
2021/03/04 06:35:12;;;;;;;26.35;12.93;;;3.10;91.80;;;;;;6073646;23;20313;-88
2021/03/04 06:37:43;;;;;;;26.15;12.75;;;3.10;91.80;;;;;;6071647;23;20267;-86
2021/03/04 06:40:32;;;;;;;28.83;13.40;;;3.10;91.80;;;;;;6070579;23;20062;-88
2021/03/04 06:43:00;;;;;;;26.58;12.68;;;3.10;91.80;;;;;;6076248;23;20015;-90
2021/03/04 06:45:35;;;;;;;26.13;13.02;;;3.10;91.80;;;;;;6078270;23;20010;-85
2021/03/04 06:48:11;;;;;;;25.48;12.68;;;3.10;91.80;;;;;;6048504;23;20014;-87
2021/03/04 06:50:45;;;;;;;26.70;12.50;;;3.10;91.80;;;;;;6046784;23;20025;-87
2021/03/04 06:53:15;;;;;;;24.75;12.27;;;3.20;91.80;;;;;;6071017;23;20036;-86
2021/03/04 06:55:53;;;;;;;24.40;11.17;;;3.10;91.80;;;;;;6094846;23;20028;-87
2021/03/04 06:58:35;;;;;;;30.70;13.27;;;3.20;91.70;;;;;;6049999;23;20029;-87
2021/03/04 07:01:21;;;;;;;27.83;12.75;;;3.20;91.80;;;;;;6070511;23;20459;-88
2021/03/04 07:03:49;;;;;;;29.88;13.30;;;3.20;91.80;;;;;;6069780;23;20025;-87
2021/03/04 07:06:19;;;;;;;32.08;13.50;;;3.10;91.70;;;;;;6050984;23;20021;-84
2021/03/04 07:08:46;;;;;;;27.17;13.60;;;3.20;91.80;;;;;;6074440;23;20020;-87
2021/03/04 07:11:14;;;;;;;26.95;12.52;;;3.20;91.80;;;;;;6070783;23;20017;-87
2021/03/04 07:13:40;;;;;;;27.77;12.80;;;3.20;91.80;;;;;;6071073;23;20032;-88
2021/03/04 07:16:36;;;;;;;27.95;13.05;;;3.20;91.80;;;;;;6047792;23;20021;-86
2021/03/04 07:19:03;;;;;;;28.10;13.90;;;3.20;91.80;;;;;;6072149;23;20036;-85
2021/03/04 07:21:37;;;;;;;25.92;13.05;;;3.20;91.80;;;;;;6095074;23;20009;-87
2021/03/04 07:24:04;;;;;;;26.73;12.93;;;3.20;91.80;;;;;;6071838;23;20077;-88
2021/03/04 07:26:32;;;;;;;26.90;13.75;;;3.30;91.80;;;;;;6071385;23;20563;-87
2021/03/04 07:29:01;;;;;;;26.08;12.73;;;3.30;91.80;;;;;;6071573;23;20101;-87
2021/03/04 07:31:29;;;;;;;25.63;13.70;;;3.40;91.80;;;;;;6096354;23;20014;-87
2021/03/04 07:33:55;;;;;;;32.35;13.95;;;3.40;91.80;;;;;;6071836;23;20328;-86
2021/03/04 07:36:22;;;;;;;29.63;14.20;;;3.40;91.80;;;;;;6095313;23;20363;-87
2021/03/04 07:38:59;;;;;;;24.88;13.38;;;3.40;91.80;;;;;;6095088;23;20018;-90
2021/03/04 07:41:44;;;;;;;31.92;14.02;;;3.40;91.80;;;;;;6095055;23;20010;-88
2021/03/04 07:44:10;;;;;;;30.48;14.30;;;3.40;91.70;;;;;;6098669;23;20009;-88
2021/03/04 07:46:37;;;;;;;25.73;13.32;;;3.40;91.70;;;;;;6095626;23;20460;-87
2021/03/04 07:49:08;;;;;;;27.67;13.85;;;3.50;91.70;;;;;;6094619;23;20017;-88
2021/03/04 07:51:45;;;;;;;29.10;14.98;;;3.50;91.70;;;;;;6095892;23;20469;-88
2021/03/04 07:54:11;;;;;;;25.05;13.15;;;3.50;91.70;;;;;;6071304;23;20477;-88
2021/03/04 07:56:37;;;;;;;26.55;13.32;;;3.50;91.60;;;;;;6070841;23;20493;-88
2021/03/04 07:59:13;;;;;;;23.67;13.68;;;3.50;91.60;;;;;;6071002;23;20017;-88
2021/03/04 08:01:54;;;;;;;29.05;14.63;;;3.50;91.60;;;;;;6095183;23;20018;-90
2021/03/04 08:04:21;;;;;;;26.92;15.07;;;3.60;91.40;;;;;;6071490;23;20086;-88
2021/03/04 08:06:54;;;;;;;25.00;13.50;;;3.60;91.60;;;;;;6071366;23;20020;-88
2021/03/04 08:09:46;;;;;;;31.05;14.57;;;3.70;91.60;;;;;;6096721;23;20321;-90
2021/03/04 08:12:13;;;;;;;25.50;13.82;;;3.70;91.60;;;;;;6072154;23;20313;-89
2021/03/04 08:14:41;;;;;;;23.20;13.02;;;3.70;91.50;;;;;;6095020;23;20013;-87
2021/03/04 08:17:07;;;;;;;29.20;14.73;;;3.70;91.50;;;;;;6094745;23;20017;-88
2021/03/04 08:19:34;;;;;;;23.48;13.80;;;3.70;91.50;;;;;;6101610;23;20047;-88
2021/03/04 08:22:05;;;;;;;25.38;13.30;;;3.80;91.50;;;;;;6099645;23;20036;-87
2021/03/04 08:24:31;;;;;;;23.85;13.23;;;3.80;91.50;;;;;;6100890;23;20048;-89
2021/03/04 08:26:57;;;;;;;25.85;13.77;;;3.80;91.50;;;;;;6100362;23;20013;-89
2021/03/04 08:29:24;;;;;;;24.00;14.00;;;3.80;91.40;;;;;;6100035;23;20037;-89
2021/03/04 08:31:52;;;;;;;26.67;13.80;;;3.80;91.40;;;;;;6100794;23;20021;-88
2021/03/04 08:34:18;;;;;;;29.48;14.43;;;3.80;91.40;;;;;;6100701;23;20017;-89
2021/03/04 08:36:47;;;;;;;25.17;12.55;;;3.80;91.40;;;;;;6076444;23;20350;-90
2021/03/04 08:39:14;;;;;;;22.58;12.60;;;3.80;91.40;;;;;;6099872;23;20013;-89
2021/03/04 08:41:40;;;;;;;24.50;13.63;;;3.80;91.40;;;;;;6075938;23;20100;-90
2021/03/04 08:44:16;;;;;;;22.65;13.50;;;3.80;91.40;;;;;;6100480;23;20079;-89
2021/03/04 08:46:47;;;;;;;28.60;13.57;;;3.80;91.40;;;;;;6099645;23;20454;-90
2021/03/04 08:49:22;;;;;;;23.25;13.40;;;3.90;91.40;;;;;;6099982;23;20009;-88
2021/03/04 08:51:48;;;;;;;23.77;13.20;;;3.90;91.30;;;;;;6124760;23;20097;-88
2021/03/04 08:54:24;;;;;;;22.90;13.00;;;3.90;91.30;;;;;;6104438;23;20013;-87
2021/03/04 08:56:58;;;;;;;23.58;13.23;;;3.90;91.30;;;;;;6100090;23;20017;-89
2021/03/04 08:59:25;;;;;;;22.80;12.35;;;3.90;91.20;;;;;;6077171;23;20017;-88
2021/03/04 09:01:51;;;;;;;23.75;12.45;;;3.90;91.20;;;;;;6075547;23;20020;-89
2021/03/04 09:04:23;;;;;;;28.73;13.50;;;3.90;91.20;;;;;;6099920;23;20084;-89
2021/03/04 09:06:50;;;;;;;23.17;12.73;;;3.90;91.20;;;;;;6101574;23;20315;-88
2021/03/04 09:09:20;;;;;;;23.48;13.57;;;3.90;91.20;;;;;;6101028;23;20049;-87
2021/03/04 09:11:48;;;;;;;24.02;13.25;;;3.90;91.20;;;;;;6125196;23;20023;-89
2021/03/04 09:14:14;;;;;;;24.38;12.75;;;4.00;91.10;;;;;;6125708;23;20013;-88
2021/03/04 09:16:41;;;;;;;22.38;12.10;;;4.00;91.20;;;;;;6124851;23;20016;-89
2021/03/04 09:19:06;;;;;;;24.98;14.10;;;4.00;91.10;;;;;;6077220;23;20017;-89
2021/03/04 09:21:32;;;;;;;26.33;14.02;;;4.00;91.20;;;;;;6100181;23;20016;-90
2021/03/04 09:23:58;;;;;;;24.75;13.45;;;4.20;91.20;;;;;;6101609;23;20350;-88
2021/03/04 09:26:29;;;;;;;20.85;12.48;;;4.20;91.20;;;;;;6077068;23;20013;-89
2021/03/04 09:28:55;;;;;;;20.65;12.05;;;4.20;91.20;;;;;;6081134;23;20470;-90
2021/03/04 09:31:22;;;;;;;19.55;12.20;;;4.30;91.20;;;;;;6100334;23;20070;-89
2021/03/04 09:33:55;;;;;;;20.65;12.40;;;4.30;91.10;;;;;;6102144;23;20020;-87
2021/03/04 09:36:21;;;;;;;19.83;12.48;;;4.40;91.20;;;;;;6100492;23;20035;-88
2021/03/04 09:38:53;;;;;;;22.83;12.55;;;4.40;91.00;;;;;;6076307;23;20017;-89
2021/03/04 09:41:20;;;;;;;21.60;12.40;;;4.50;91.00;;;;;;6101185;23;20102;-88
2021/03/04 09:44:12;;;;;;;18.55;11.38;;;4.50;90.90;;;;;;6100915;23;20024;-88
2021/03/04 09:46:38;;;;;;;21.25;12.98;;;4.50;90.90;;;;;;6124554;23;20100;-90
2021/03/04 09:49:10;;;;;;;22.92;11.27;;;4.50;90.90;;;;;;6076583;23;20013;-91
2021/03/04 09:51:37;;;;;;;22.10;10.85;;;4.50;90.90;;;;;;6149106;23;20017;-89
2021/03/04 09:54:03;;;;;;;18.58;11.43;;;4.60;90.80;;;;;;6100773;23;20263;-89
2021/03/04 09:56:30;;;;;;;16.02;10.63;;;4.50;90.70;;;;;;6124537;23;20470;-90
2021/03/04 09:58:56;;;;;;;20.33;10.88;;;4.60;90.80;;;;;;6101281;23;20040;-90
2021/03/04 10:01:32;;;;;;;18.10;11.77;;;4.60;90.80;;;;;;6100734;23;20489;-87
2021/03/04 10:04:06;;;;;;;16.02;11.00;;;4.60;90.80;;;;;;6104455;23;20013;-89
2021/03/04 10:06:37;;;;;;;;;;;4.60;90.70;;;;;;6102453;23;20461;-90
2021/03/04 10:09:05;;;;;;;17.23;10.45;;;4.70;90.80;;;;;;6125235;23;20000;-87
2021/03/04 10:11:34;;;;;;;14.15;9.50;;;4.70;90.70;;;;;;6103208;23;20027;-88
2021/03/04 10:14:09;;;;;;;18.00;10.10;;;4.80;90.70;;;;;;6078491;23;20093;-88
2021/03/04 10:16:38;;;;;;;16.25;10.43;;;4.80;90.60;;;;;;6102038;23;20013;-90
2021/03/04 10:19:06;;;;;;;15.48;9.45;;;4.80;90.60;;;;;;6077503;23;20529;-87
2021/03/04 10:21:31;;;;;;;13.07;9.27;;;4.90;90.90;;;;;;6214689;22;20048;-88
2021/03/04 10:23:57;;;;;;;17.35;9.85;;;4.90;90.40;;;;;;6072274;23;20018;-87
2021/03/04 10:26:23;;;;;;;15.52;9.80;;;5.00;90.50;;;;;;6072210;23;20010;-86
2021/03/04 10:28:49;;;;;;;13.43;8.75;;;5.00;90.40;;;;;;6071502;23;20433;-86
2021/03/04 10:31:15;;;;;;;15.32;8.90;;;5.10;90.40;;;;;;6071920;23;20014;-87
2021/03/04 10:33:40;;;;;;;14.60;8.45;;;5.10;90.30;;;;;;6071047;23;20336;-86
2021/03/04 10:36:07;;;;;;;13.55;9.10;;;5.20;90.30;;;;;;6095710;23;20025;-90
2021/03/04 10:38:34;;;;;;;15.90;8.68;;;5.30;90.30;;;;;;6076203;23;20048;-90
2021/03/04 10:41:00;;;;;;;14.27;8.85;;;5.30;90.30;;;;;;6047947;23;20033;-90
2021/03/04 10:43:26;;;;;;;13.63;8.02;;;5.40;90.20;;;;;;6047943;23;20017;-89
2021/03/04 10:45:52;;;;;;;16.13;7.40;;;5.40;90.10;;;;;;6071546;23;20461;-88
2021/03/04 10:48:18;;;;;;;15.95;7.97;;;5.50;90.10;;;;;;6071396;23;20408;-89
2021/03/04 10:50:44;;;;;;;12.25;7.18;;;5.60;90.00;;;;;;6047896;23;20033;-87
2021/03/04 10:53:10;;;;;;;15.82;8.43;;;5.60;90.00;;;;;;6047626;23;20028;-88
2021/03/04 10:55:36;;;;;;;11.95;7.15;;;5.70;89.90;;;;;;6071932;23;20013;-87
2021/03/04 10:58:02;;;;;;;11.90;7.13;;;5.80;89.50;;;;;;6096004;23;20086;-89
2021/03/04 11:00:28;;;;;;;12.98;6.32;;;5.80;89.50;;;;;;6071736;23;20017;-89
2021/03/04 11:02:54;;;;;;;14.57;6.93;;;5.80;89.40;;;;;;6071539;23;20088;-90
2021/03/04 11:05:20;;;;;;;9.60;5.30;;;5.80;89.20;;;;;;6071222;23;20566;-91
2021/03/04 11:07:46;;;;;;;12.38;5.15;;;5.80;88.90;;;;;;6072349;23;20075;-93
2021/03/04 11:10:12;;;;;;;10.75;5.60;;;5.80;88.50;;;;;;6047819;23;20018;-90
2021/03/04 11:12:38;;;;;;;11.55;5.22;;;5.70;88.50;;;;;;6077395;23;20118;-91
2021/03/04 11:15:05;;;;;;;14.38;5.53;;;5.80;88.50;;;;;;6071349;23;20009;-91
2021/03/04 11:17:31;;;;;;;8.63;5.25;;;5.80;88.40;;;;;;6072076;23;20018;-91
2021/03/04 11:19:57;;;;;;;8.07;5.45;;;5.70;88.00;;;;;;6074979;23;20009;-91
2021/03/04 11:22:22;;;;;;;16.05;5.40;;;5.70;88.20;;;;;;6095127;23;20028;-90
2021/03/04 11:24:48;;;;;;;11.77;5.55;;;5.70;88.30;;;;;;6095917;23;20016;-86
2021/03/04 11:27:15;;;;;;;9.98;4.75;;;5.80;88.40;;;;;;6095381;23;20329;-89
2021/03/04 11:29:41;;;;;;;12.60;6.03;;;5.80;88.10;;;;;;6095601;23;20017;-87
2021/03/04 11:32:07;;;;;;;10.13;5.55;;;5.80;88.00;;;;;;6095439;23;20036;-90
2021/03/04 11:34:33;;;;;;;8.60;5.25;;;5.80;88.20;;;;;;6071783;23;20398;-90
2021/03/04 11:36:59;;;;;;;10.25;4.88;;;5.80;87.80;;;;;;6071490;23;20009;-89
2021/03/04 11:39:25;;;;;;;10.95;5.15;;;5.80;87.60;;;;;;6095999;23;20496;-92
2021/03/04 11:41:51;;;;;;;10.27;4.65;;;5.80;87.70;;;;;;6095137;23;20074;-90
2021/03/04 11:44:17;;;;;;;12.55;5.28;;;5.90;87.60;;;;;;6120047;23;20142;-91
2021/03/04 11:46:42;;;;;;;9.75;5.57;;;5.90;87.60;;;;;;6100377;23;20304;-91
2021/03/04 11:49:08;;;;;;;15.55;5.68;;;5.80;87.70;;;;;;6095789;23;20016;-90
2021/03/04 11:51:34;;;;;;;10.45;4.88;;;5.80;87.60;;;;;;6071456;23;20048;-89
2021/03/04 11:54:00;;;;;;;13.38;5.40;;;5.90;87.80;;;;;;6071328;23;20455;-90
2021/03/04 11:56:30;;;;;;;8.77;4.82;;;5.90;87.70;;;;;;6094845;23;20079;-88
2021/03/04 11:58:55;;;;;;;9.95;4.28;;;5.90;87.80;;;;;;6071206;23;20052;-87
2021/03/04 12:01:21;;;;;;;11.82;5.00;;;6.00;87.70;;;;;;6093898;23;20347;-90
2021/03/04 12:03:47;;;;;;;10.00;5.05;;;6.00;87.50;;;;;;6071602;23;20049;-88
2021/03/04 12:06:13;;;;;;;10.70;4.72;;;6.00;87.40;;;;;;6070503;23;20054;-90
2021/03/04 12:08:42;;;;;;;10.50;5.03;;;6.00;87.30;;;;;;6094899;23;20033;-92
2021/03/04 12:11:08;;;;;;;9.63;4.38;;;6.00;87.30;;;;;;6095429;23;20017;-90
2021/03/04 12:13:34;;;;;;;11.02;4.55;;;6.00;87.10;;;;;;6071252;23;20017;-89
2021/03/04 12:16:06;;;;;;;13.73;5.40;;;6.00;87.20;;;;;;6094715;23;20045;-90
2021/03/04 12:18:38;;;;;;;13.30;4.70;;;5.90;87.30;;;;;;6072090;23;20477;-91
2021/03/04 12:21:05;;;;;;;8.13;4.38;;;6.00;87.30;;;;;;6076286;23;20029;-89
2021/03/04 12:23:31;;;;;;;8.23;4.10;;;6.00;87.40;;;;;;6095498;23;20180;-89
2021/03/04 12:25:57;;;;;;;13.35;4.88;;;6.10;87.30;;;;;;6094646;23;20013;-88
2021/03/04 12:28:23;;;;;;;11.88;4.10;;;6.10;87.30;;;;;;6095522;23;20020;-90
2021/03/04 12:30:48;;;;;;;9.88;3.60;;;6.20;87.30;;;;;;6071234;23;20104;-89
2021/03/04 12:33:14;;;;;;;14.02;3.40;;;6.30;86.90;;;;;;6095509;23;20016;-88
2021/03/04 12:35:40;;;;;;;10.00;2.67;;;6.40;86.70;;;;;;6095110;23;20441;-87
2021/03/04 12:38:07;;;;;;;11.65;2.83;;;6.50;86.50;;;;;;6095129;23;20032;-89
2021/03/04 12:40:34;;;;;;;11.23;3.20;;;6.60;85.70;;;;;;6095426;23;20218;-88
2021/03/04 12:43:01;;;;;;;14.88;2.92;;;6.60;85.80;;;;;;6096737;23;20092;-90
2021/03/04 12:45:28;;;;;;;13.70;2.53;;;6.70;85.40;;;;;;6077772;23;20009;-88